地図

経路データ

SID SEASON NUMBER BASIN SUBBASIN NAME ISO_TIME NATURE LAT LON WMO_WIND WMO_PRES WMO_AGENCY TRACK_TYPE DIST2LAND LANDFALL IFLAG USA_AGENCY USA_ATCF_ID USA_LAT USA_LON USA_RECORD USA_STATUS USA_WIND USA_PRES USA_SSHS USA_R34_NE USA_R34_SE USA_R34_SW USA_R34_NW USA_R50_NE USA_R50_SE USA_R50_SW USA_R50_NW USA_R64_NE USA_R64_SE USA_R64_SW USA_R64_NW USA_POCI USA_ROCI USA_RMW USA_EYE TOKYO_LAT TOKYO_LON TOKYO_GRADE TOKYO_WIND TOKYO_PRES TOKYO_R50_DIR TOKYO_R50_LONG TOKYO_R50_SHORT TOKYO_R30_DIR TOKYO_R30_LONG TOKYO_R30_SHORT TOKYO_LAND CMA_LAT CMA_LON CMA_CAT CMA_WIND CMA_PRES HKO_LAT HKO_LON HKO_CAT HKO_WIND HKO_PRES NEWDELHI_LAT NEWDELHI_LON NEWDELHI_GRADE NEWDELHI_WIND NEWDELHI_PRES NEWDELHI_CI NEWDELHI_DP NEWDELHI_POCI REUNION_LAT REUNION_LON REUNION_TYPE REUNION_WIND REUNION_PRES REUNION_TNUM REUNION_CI REUNION_RMW REUNION_R34_NE REUNION_R34_SE REUNION_R34_SW REUNION_R34_NW REUNION_R50_NE REUNION_R50_SE REUNION_R50_SW REUNION_R50_NW REUNION_R64_NE REUNION_R64_SE REUNION_R64_SW REUNION_R64_NW BOM_LAT BOM_LON BOM_TYPE BOM_WIND BOM_PRES BOM_TNUM BOM_CI BOM_RMW BOM_R34_NE BOM_R34_SE BOM_R34_SW BOM_R34_NW BOM_R50_NE BOM_R50_SE BOM_R50_SW BOM_R50_NW BOM_R64_NE BOM_R64_SE BOM_R64_SW BOM_R64_NW BOM_ROCI BOM_POCI BOM_EYE BOM_POS_METHOD BOM_PRES_METHOD NADI_LAT NADI_LON NADI_CAT NADI_WIND NADI_PRES WELLINGTON_LAT WELLINGTON_LON WELLINGTON_WIND WELLINGTON_PRES DS824_LAT DS824_LON DS824_STAGE DS824_WIND DS824_PRES TD9636_LAT TD9636_LON TD9636_STAGE TD9636_WIND TD9636_PRES TD9635_LAT TD9635_LON TD9635_WIND TD9635_PRES TD9635_ROCI NEUMANN_LAT NEUMANN_LON NEUMANN_CLASS NEUMANN_WIND NEUMANN_PRES MLC_LAT MLC_LON MLC_CLASS MLC_WIND MLC_PRES USA_GUST BOM_GUST BOM_GUST_PER REUNION_GUST REUNION_GUST_PER USA_SEAHGT USA_SEARAD_NE USA_SEARAD_SE USA_SEARAD_SW USA_SEARAD_NW STORM_SPEED STORM_DIR
1903253N18120 1903 43 WP MM NOT_NAMED 1903-09-09 16:00:00 NR 17.9000 120.000 main 46 46 __________O___ -1 17.9000 120.000 7 22 271
1903253N18120 1903 43 WP MM NOT_NAMED 1903-09-09 18:00:00 NR 17.9160 119.218 main 121 121 __________P___ -1 17.9160 119.218 7 22 271
1903253N18120 1903 43 WP MM NOT_NAMED 1903-09-09 21:00:00 NR 17.9367 118.088 main 235 245 __________P___ -1 17.9367 118.088 7 20 271
1903253N18120 1903 43 WP MM NOT_NAMED 1903-09-10 00:00:00 NR 17.9584 117.069 main 341 352 __________P___ -1 17.9584 117.069 7 18 272
1903253N18120 1903 43 WP MM NOT_NAMED 1903-09-10 03:00:00 NR 17.9874 116.229 main 427 427 __________P___ -1 17.9874 116.229 7 15 272
1903253N18120 1903 43 WP MM NOT_NAMED 1903-09-10 04:00:00 NR 18.0000 116.000 main 446 446 __________O___ -1 18.0000 116.000 7 12 274
1903253N18120 1903 43 WP MM NOT_NAMED 1903-09-10 06:00:00 NR 18.0308 115.626 main 485 472 __________P___ -1 18.0308 115.626 7 9 277
1903253N18120 1903 43 WP MM NOT_NAMED 1903-09-10 09:00:00 NR 18.0918 115.229 main 472 439 __________P___ -1 18.0918 115.229 7 7 282
1903253N18120 1903 43 WP MM NOT_NAMED 1903-09-10 12:00:00 NR 18.1702 114.949 main 439 415 __________P___ -1 18.1702 114.949 7 5 289
1903253N18120 1903 43 WP MM NOT_NAMED 1903-09-10 15:00:00 NR 18.2650 114.695 main 415 405 __________P___ -1 18.2650 114.695 7 5 291
1903253N18120 1903 43 WP MM NOT_NAMED 1903-09-10 16:00:00 NR 18.3000 114.600 main 405 372 __________O___ -1 18.3000 114.600 3 7 287
1903253N18120 1903 43 WP MM NOT_NAMED 1903-09-10 18:00:00 NR 18.3693 114.331 main 372 328 __________P___ -1 18.3693 114.331 3 8 286
1903253N18120 1903 43 WP MM NOT_NAMED 1903-09-10 21:00:00 NR 18.4858 113.909 main 328 285 __________P___ -1 18.4858 113.909 3 8 287
1903253N18120 1903 43 WP MM NOT_NAMED 1903-09-11 00:00:00 NR 18.6146 113.475 main 285 228 __________P___ -1 18.6146 113.475 3 9 288
1903253N18120 1903 43 WP MM NOT_NAMED 1903-09-11 03:00:00 NR 18.7525 113.042 main 228 218 __________P___ -1 18.7525 113.042 3 9 289
1903253N18120 1903 43 WP MM NOT_NAMED 1903-09-11 04:00:00 NR 18.8000 112.900 main 218 185 __________O___ -1 18.8000 112.900 4 8 290
1903253N18120 1903 43 WP MM NOT_NAMED 1903-09-11 06:00:00 NR 18.8942 112.620 main 185 142 __________P___ -1 18.8942 112.620 4 8 290
1903253N18120 1903 43 WP MM NOT_NAMED 1903-09-11 09:00:00 NR 19.0419 112.205 main 142 95 __________P___ -1 19.0419 112.205 4 8 291
1903253N18120 1903 43 WP MM NOT_NAMED 1903-09-11 12:00:00 NR 19.1944 111.804 main 95 53 __________P___ -1 19.1944 111.804 4 8 293
1903253N18120 1903 43 WP MM NOT_NAMED 1903-09-11 15:00:00 NR 19.3487 111.422 main 53 38 __________P___ -1 19.3487 111.422 4 8 293
1903253N18120 1903 43 WP MM NOT_NAMED 1903-09-11 16:00:00 NR 19.4000 111.300 main 38 15 __________O___ -1 19.4000 111.300 4 7 294
1903253N18120 1903 43 WP MM NOT_NAMED 1903-09-11 18:00:00 NR 19.4971 111.069 main 15 0 __________P___ -1 19.4971 111.069 4 7 295
1903253N18120 1903 43 WP MM NOT_NAMED 1903-09-11 21:00:00 NR 19.6428 110.741 main 0 0 __________P___ -1 19.6428 110.741 4 7 296
1903253N18120 1903 43 WP MM NOT_NAMED 1903-09-12 00:00:00 NR 19.7916 110.425 main 0 0 __________P___ -1 19.7916 110.425 4 7 297
1903253N18120 1903 43 WP MM NOT_NAMED 1903-09-12 03:00:00 NR 19.9465 110.108 main 0 0 __________P___ -1 19.9465 110.108 4 7 298
1903253N18120 1903 43 WP MM NOT_NAMED 1903-09-12 04:00:00 NR 20.0000 110.000 main 10 10 __________O___ -1 20.0000 110.000 4 7 296
1903253N18120 1903 43 WP MM NOT_NAMED 1903-09-12 06:00:00 NR 20.1004 109.770 main 15 15 __________P___ -1 20.1004 109.770 4 7 295
1903253N18120 1903 43 WP MM NOT_NAMED 1903-09-12 09:00:00 NR 20.2571 109.418 main 45 45 __________P___ -1 20.2571 109.418 4 7 296
1903253N18120 1903 43 WP MM NOT_NAMED 1903-09-12 12:00:00 NR 20.4295 109.064 main 69 74 __________P___ -1 20.4295 109.064 4 8 299
1903253N18120 1903 43 WP MM NOT_NAMED 1903-09-12 15:00:00 NR 20.6270 108.714 main 103 93 __________P___ -1 20.6270 108.714 4 8 302
1903253N18120 1903 43 WP MM NOT_NAMED 1903-09-12 16:00:00 NR 20.7000 108.600 main 98 70 __________O___ -1 20.7000 108.600 4 8 306
1903253N18120 1903 43 WP MM NOT_NAMED 1903-09-12 18:00:00 NR 20.8580 108.375 main 70 35 __________P___ -1 20.8580 108.375 4 8 309
1903253N18120 1903 43 WP MM NOT_NAMED 1903-09-12 21:00:00 NR 21.1202 108.047 main 35 0 __________P___ -1 21.1202 108.047 4 8 312
1903253N18120 1903 43 WP MM NOT_NAMED 1903-09-13 00:00:00 NR 21.4041 107.725 main 0 0 __________P___ -1 21.4041 107.725 4 8 314
1903253N18120 1903 43 WP MM NOT_NAMED 1903-09-13 03:00:00 NR 21.7002 107.406 main 0 0 __________P___ -1 21.7002 107.406 4 8 315
1903253N18120 1903 43 WP MM NOT_NAMED 1903-09-13 04:00:00 NR 21.8000 107.300 main 0 __________O___ -1 21.8000 107.300 4 8 317

デジタル台風データ・検索

IBTrACS Databaseについて

本データベースは、米国NOAAが公開する1842年以降の世界の熱帯低気圧のベストトラックデータアーカイブInternational Best Track Archive for Climate Stewardship (IBTrACS)を、ウェブで閲覧しやすい形式に変換したものです。

最終更新日:2021-10-21